createdAt,value
2023-04-08T00:00:50.223Z,7.40
2023-04-08T00:03:52.601Z,7.40
2023-04-08T00:06:54.602Z,7.40
2023-04-08T00:09:57.140Z,7.40
2023-04-08T00:13:00.888Z,7.30
2023-04-08T00:16:03.534Z,7.30
2023-04-08T00:19:06.969Z,7.30
2023-04-08T00:22:08.954Z,7.30
2023-04-08T00:25:10.986Z,7.30
2023-04-08T00:28:14.212Z,7.20
2023-04-08T00:31:16.600Z,7.20
2023-04-08T00:34:18.463Z,7.10
2023-04-08T00:37:21.308Z,7.20
2023-04-08T00:40:23.181Z,7.20
2023-04-08T00:43:24.971Z,7.10
2023-04-08T00:46:27.050Z,7.10
2023-04-08T00:49:30.498Z,7.10
2023-04-08T00:52:32.366Z,7.00
2023-04-08T00:55:34.243Z,7.00
2023-04-08T00:58:36.177Z,6.90
2023-04-08T01:01:51.296Z,6.90
2023-04-08T01:05:05.474Z,6.80
2023-04-08T01:08:10.350Z,6.70
2023-04-08T01:11:14.499Z,6.70
2023-04-08T01:14:21.123Z,6.60
2023-04-08T01:17:23.593Z,6.60
2023-04-08T01:20:26.841Z,6.50
2023-04-08T01:23:51.501Z,6.50
2023-04-08T01:26:57.093Z,6.40
2023-04-08T01:30:01.276Z,6.40
2023-04-08T01:33:05.719Z,6.30
2023-04-08T01:36:09.150Z,6.30
2023-04-08T01:39:12.339Z,6.20
2023-04-08T01:42:15.321Z,6.20
2023-04-08T01:45:20.600Z,6.20
2023-04-08T01:48:23.536Z,6.20
2023-04-08T01:51:27.188Z,6.10
2023-04-08T01:54:29.124Z,6.10
2023-04-08T01:57:35.311Z,6.10
2023-04-08T02:00:38.962Z,6.00
2023-04-08T02:03:44.276Z,6.00
2023-04-08T02:06:47.160Z,6.10
2023-04-08T02:09:49.006Z,6.10
2023-04-08T02:12:51.007Z,6.00
2023-04-08T02:16:02.599Z,6.10
2023-04-08T02:19:13.129Z,6.10
2023-04-08T02:22:28.422Z,6.10
2023-04-08T02:25:31.997Z,6.20
2023-04-08T02:28:35.702Z,6.20
2023-04-08T02:31:42.008Z,6.20
2023-04-08T02:34:44.315Z,6.20
2023-04-08T02:37:49.345Z,6.30
2023-04-08T02:40:51.663Z,6.30
2023-04-08T02:43:55.614Z,6.30
2023-04-08T02:46:57.409Z,6.20
2023-04-08T02:49:59.379Z,6.30
2023-04-08T02:53:01.532Z,6.20
2023-04-08T02:56:03.295Z,6.20
2023-04-08T02:59:05.468Z,6.20
2023-04-08T03:02:07.437Z,6.20
2023-04-08T03:05:09.824Z,6.20
2023-04-08T03:08:11.751Z,6.20
2023-04-08T03:11:13.766Z,6.10
2023-04-08T03:14:15.596Z,6.10
2023-04-08T03:17:17.449Z,6.00
2023-04-08T03:20:19.249Z,6.00
2023-04-08T03:23:21.119Z,6.00
2023-04-08T03:26:22.934Z,6.10
2023-04-08T03:29:24.971Z,5.90
2023-04-08T03:32:27.278Z,5.90
2023-04-08T03:35:29.180Z,5.90
2023-04-08T03:38:31.126Z,5.80
2023-04-08T03:41:32.911Z,5.80
2023-04-08T03:44:34.880Z,5.80
2023-04-08T03:47:36.799Z,5.70
2023-04-08T03:50:38.607Z,5.80
2023-04-08T03:53:40.486Z,5.70
2023-04-08T03:56:42.277Z,5.70
2023-04-08T03:59:44.146Z,5.70
2023-04-08T04:02:46.322Z,5.70
2023-04-08T04:05:48.201Z,5.70
2023-04-08T04:08:50.622Z,5.70
2023-04-08T04:11:52.708Z,5.70
2023-04-08T04:14:54.531Z,5.70
2023-04-08T04:17:56.319Z,5.70
2023-04-08T04:20:58.112Z,5.70
2023-04-08T04:23:59.884Z,5.70
2023-04-08T04:27:01.682Z,5.70
2023-04-08T04:30:04.748Z,5.60
2023-04-08T04:33:07.266Z,5.60
2023-04-08T04:36:08.994Z,5.60
2023-04-08T04:39:10.796Z,5.50
2023-04-08T04:42:12.846Z,5.50
2023-04-08T04:45:17.865Z,5.50
2023-04-08T04:48:20.165Z,5.40
2023-04-08T04:51:22.016Z,5.40
2023-04-08T04:54:23.837Z,5.40
2023-04-08T04:57:25.660Z,5.30
2023-04-08T05:00:27.531Z,5.30
2023-04-08T05:03:29.371Z,5.30
2023-04-08T05:06:31.130Z,5.30
2023-04-08T05:09:33.636Z,5.30
2023-04-08T05:12:37.513Z,5.20
2023-04-08T05:15:39.717Z,5.20
2023-04-08T05:18:41.806Z,5.20
2023-04-08T05:21:43.615Z,5.20
2023-04-08T05:24:45.451Z,5.20
2023-04-08T05:27:47.297Z,5.20
2023-04-08T05:30:50.796Z,5.20
2023-04-08T05:33:53.028Z,5.20
2023-04-08T05:36:54.837Z,5.20
2023-04-08T05:39:56.670Z,5.20
2023-04-08T05:42:58.472Z,5.20
2023-04-08T05:46:00.245Z,5.20
2023-04-08T05:49:02.293Z,5.30
2023-04-08T05:52:04.125Z,5.30
2023-04-08T05:55:06.681Z,5.30
2023-04-08T05:58:08.541Z,5.30
2023-04-08T06:01:10.456Z,5.30
2023-04-08T06:04:12.724Z,5.40
2023-04-08T06:07:14.688Z,5.50
2023-04-08T06:10:16.725Z,5.50
2023-04-08T06:13:20.299Z,5.60
2023-04-08T06:16:22.576Z,5.60
2023-04-08T06:19:27.885Z,5.60
2023-04-08T06:22:30.018Z,5.70
2023-04-08T06:25:31.878Z,5.70
2023-04-08T06:28:33.736Z,5.70
2023-04-08T06:31:35.568Z,5.70
2023-04-08T06:34:38.343Z,5.80
2023-04-08T06:37:41.941Z,5.80
2023-04-08T06:40:43.774Z,5.90
2023-04-08T06:43:45.633Z,5.90
2023-04-08T06:46:47.414Z,6.00
2023-04-08T06:49:49.358Z,6.10
2023-04-08T06:52:51.147Z,6.20
2023-04-08T06:55:53.009Z,6.10
2023-04-08T06:58:54.946Z,6.30
2023-04-08T07:01:56.879Z,6.40
2023-04-08T07:04:58.896Z,6.50
2023-04-08T07:08:00.787Z,6.70
2023-04-08T07:11:02.875Z,6.70
2023-04-08T07:14:04.795Z,6.80
2023-04-08T07:17:06.794Z,6.80
2023-04-08T07:20:09.252Z,6.90
2023-04-08T07:23:11.343Z,7.00
2023-04-08T07:26:13.143Z,7.00
2023-04-08T07:29:15.021Z,7.00
2023-04-08T07:32:17.027Z,7.00
2023-04-08T07:35:24.297Z,7.10
2023-04-08T07:38:26.217Z,7.10
2023-04-08T07:41:28.192Z,7.20
2023-04-08T07:44:30.119Z,7.20
2023-04-08T07:47:33.338Z,7.30
2023-04-08T07:51:08.936Z,7.40
2023-04-08T07:54:00.368Z,7.40
2023-04-08T07:57:02.648Z,7.50
2023-04-08T08:00:06.546Z,7.60
2023-04-08T08:03:08.508Z,7.70
2023-04-08T08:06:12.241Z,7.80
2023-04-08T08:09:14.472Z,7.80
2023-04-08T08:12:16.615Z,7.90
2023-04-08T08:15:18.920Z,8.00
2023-04-08T08:18:21.244Z,7.90
2023-04-08T08:21:23.327Z,7.90
2023-04-08T08:24:26.217Z,7.90
2023-04-08T08:27:28.017Z,7.80
2023-04-08T08:30:29.954Z,7.80
2023-04-08T08:33:33.312Z,7.80
2023-04-08T08:36:35.891Z,8.00
2023-04-08T08:39:37.761Z,8.10
2023-04-08T08:42:40.113Z,8.30
2023-04-08T08:45:42.866Z,8.60
2023-04-08T08:48:45.468Z,8.80
2023-04-08T08:51:47.972Z,8.90
2023-04-08T08:54:58.925Z,9.00
2023-04-08T08:58:02.455Z,9.10
2023-04-08T09:01:24.665Z,9.10
2023-04-08T09:04:26.949Z,9.20
2023-04-08T09:07:30.730Z,9.10
2023-04-08T09:10:33.629Z,9.10
2023-04-08T09:13:39.260Z,9.00
2023-04-08T09:16:44.436Z,8.90
2023-04-08T09:20:09.710Z,8.80
2023-04-08T09:23:11.608Z,8.70
2023-04-08T09:26:22.055Z,8.50
2023-04-08T09:29:27.641Z,8.50
2023-04-08T09:32:54.325Z,8.40
2023-04-08T09:35:57.752Z,8.30
2023-04-08T09:38:59.791Z,8.30
2023-04-08T09:42:08.277Z,8.20
2023-04-08T09:45:11.976Z,8.10
2023-04-08T09:48:24.276Z,8.00
2023-04-08T09:51:28.303Z,8.00
2023-04-08T09:54:39.155Z,8.00
2023-04-08T09:57:46.842Z,7.90
2023-04-08T10:00:52.274Z,7.90
2023-04-08T10:03:57.434Z,7.80
2023-04-08T10:07:07.503Z,7.80
2023-04-08T10:10:11.906Z,7.90
2023-04-08T10:13:13.978Z,8.00
2023-04-08T10:16:25.371Z,8.20
2023-04-08T10:19:41.253Z,8.30
2023-04-08T10:22:48.073Z,8.40
2023-04-08T10:25:49.959Z,8.50
2023-04-08T10:28:51.892Z,8.60
2023-04-08T10:31:53.990Z,8.60
2023-04-08T10:34:56.052Z,8.80
2023-04-08T10:37:59.074Z,8.90
2023-04-08T10:41:00.951Z,9.00
2023-04-08T10:44:06.128Z,9.20
2023-04-08T10:47:08.081Z,9.40
2023-04-08T10:50:16.981Z,9.50
2023-04-08T10:53:18.946Z,9.70
2023-04-08T10:56:22.070Z,9.70
2023-04-08T10:59:33.024Z,9.70
2023-04-08T11:02:38.935Z,9.70
2023-04-08T11:05:41.311Z,9.70
2023-04-08T11:08:44.795Z,9.60
2023-04-08T11:11:46.929Z,9.50
2023-04-08T11:14:49.875Z,9.40
2023-04-08T11:17:52.199Z,9.30
2023-04-08T11:20:54.613Z,9.30
2023-04-08T11:23:56.560Z,9.20
2023-04-08T11:26:59.300Z,9.10
2023-04-08T11:30:01.742Z,9.10
2023-04-08T11:33:03.905Z,9.10
2023-04-08T11:36:05.986Z,9.20
2023-04-08T11:39:12.322Z,9.40
2023-04-08T11:42:31.486Z,9.60
2023-04-08T11:45:41.679Z,9.70
2023-04-08T11:49:00.954Z,9.80
2023-04-08T11:52:03.409Z,9.80
2023-04-08T11:55:05.668Z,9.90
2023-04-08T11:58:07.791Z,9.80
2023-04-08T12:01:09.929Z,10.00
2023-04-08T12:04:12.060Z,10.00
2023-04-08T12:07:14.450Z,10.10
2023-04-08T12:10:16.549Z,10.20
2023-04-08T12:13:18.349Z,10.30
2023-04-08T12:16:20.833Z,10.30
2023-04-08T12:19:22.624Z,10.30
2023-04-08T12:22:24.435Z,10.30
2023-04-08T12:25:27.773Z,10.30
2023-04-08T12:28:30.118Z,10.20
2023-04-08T12:31:31.993Z,10.30
2023-04-08T12:34:34.294Z,10.30
2023-04-08T12:37:36.452Z,10.40
2023-04-08T12:40:38.502Z,10.40
2023-04-08T12:43:41.660Z,10.30
2023-04-08T12:46:43.697Z,10.30
2023-04-08T12:49:49.732Z,10.20
2023-04-08T12:52:52.047Z,10.20
2023-04-08T12:55:57.271Z,10.10
2023-04-08T12:59:01.128Z,10.10
2023-04-08T13:02:03.045Z,10.00
2023-04-08T13:05:05.225Z,10.00
2023-04-08T13:08:07.200Z,9.90
2023-04-08T13:11:09.272Z,9.90
2023-04-08T13:14:14.033Z,9.80
2023-04-08T13:17:15.944Z,9.80
2023-04-08T13:20:17.828Z,9.70
2023-04-08T13:23:19.925Z,9.70
2023-04-08T13:26:22.252Z,9.70
2023-04-08T13:29:24.387Z,9.70
2023-04-08T13:32:26.201Z,9.60
2023-04-08T13:35:28.049Z,9.60
2023-04-08T13:38:30.138Z,9.50
2023-04-08T13:41:32.055Z,9.50
2023-04-08T13:44:33.983Z,9.40
2023-04-08T13:47:37.764Z,9.50
2023-04-08T13:50:41.705Z,9.40
2023-04-08T13:53:43.565Z,9.40
2023-04-08T13:56:48.416Z,9.30
2023-04-08T13:59:50.416Z,9.30
2023-04-08T14:02:55.443Z,9.30
2023-04-08T14:06:01.570Z,9.30
2023-04-08T14:09:03.830Z,9.30
2023-04-08T14:12:05.732Z,9.40
2023-04-08T14:15:08.363Z,9.40
2023-04-08T14:18:10.719Z,9.50
2023-04-08T14:21:14.922Z,9.50
2023-04-08T14:24:16.762Z,9.60
2023-04-08T14:27:18.497Z,9.60
2023-04-08T14:30:20.705Z,9.70
2023-04-08T14:33:22.492Z,9.60
2023-04-08T14:36:24.456Z,9.70
2023-04-08T14:39:27.131Z,9.70
2023-04-08T14:42:28.953Z,9.70
2023-04-08T14:45:31.733Z,9.80
2023-04-08T14:48:33.607Z,9.80
2023-04-08T14:51:37.783Z,9.90
2023-04-08T14:54:39.705Z,9.90
2023-04-08T14:57:41.488Z,10.00
2023-04-08T15:00:45.325Z,10.10
2023-04-08T15:03:48.672Z,10.10
2023-04-08T15:06:50.768Z,10.10
2023-04-08T15:09:54.219Z,10.10
2023-04-08T15:12:56.156Z,10.20
2023-04-08T15:15:59.128Z,10.10
2023-04-08T15:19:00.962Z,10.20
2023-04-08T15:22:02.813Z,10.10
2023-04-08T15:25:05.475Z,10.10
2023-04-08T15:28:08.030Z,10.00
2023-04-08T15:31:10.094Z,9.90
2023-04-08T15:34:11.828Z,9.80
2023-04-08T15:37:13.737Z,9.80
2023-04-08T15:40:15.822Z,9.80
2023-04-08T15:43:17.648Z,9.80
2023-04-08T15:46:20.892Z,9.70
2023-04-08T15:49:24.310Z,9.70
2023-04-08T15:52:27.068Z,9.60
2023-04-08T15:55:28.928Z,9.60
2023-04-08T15:58:30.802Z,9.60
2023-04-08T16:01:33.314Z,9.50
2023-04-08T16:04:35.477Z,9.50
2023-04-08T16:07:37.511Z,9.50
2023-04-08T16:10:39.481Z,9.40
2023-04-08T16:13:42.432Z,9.30
2023-04-08T16:16:44.730Z,9.20
2023-04-08T16:19:47.322Z,9.10
2023-04-08T16:22:50.197Z,9.00
2023-04-08T16:25:52.196Z,9.10
2023-04-08T16:28:55.651Z,8.90
2023-04-08T16:31:57.619Z,8.90
2023-04-08T16:34:59.392Z,8.80
2023-04-08T16:38:01.228Z,8.80
2023-04-08T16:41:06.140Z,8.80
2023-04-08T16:44:07.898Z,8.70
2023-04-08T16:47:09.686Z,8.70
2023-04-08T16:50:11.796Z,8.70
2023-04-08T16:53:13.581Z,8.60
2023-04-08T16:56:16.572Z,8.60
2023-04-08T16:59:18.462Z,8.70
2023-04-08T17:02:21.656Z,8.60
2023-04-08T17:05:24.081Z,8.50
2023-04-08T17:08:26.526Z,8.50
2023-04-08T17:11:28.433Z,8.50
2023-04-08T17:14:31.221Z,8.40
2023-04-08T17:17:33.191Z,8.40
2023-04-08T17:20:34.978Z,8.30
2023-04-08T17:23:36.842Z,8.30
2023-04-08T17:26:41.710Z,8.30
2023-04-08T17:29:43.618Z,8.30
2023-04-08T17:32:45.987Z,8.20
2023-04-08T17:35:47.976Z,8.20
2023-04-08T17:38:50.871Z,8.20
2023-04-08T17:41:53.157Z,8.20
2023-04-08T17:44:56.136Z,8.10
2023-04-08T17:47:59.330Z,8.10
2023-04-08T17:51:02.776Z,8.10
2023-04-08T17:54:05.860Z,8.00
2023-04-08T17:57:07.811Z,8.00
2023-04-08T18:00:10.071Z,8.00
2023-04-08T18:03:12.361Z,8.00
2023-04-08T18:06:14.303Z,8.00
2023-04-08T18:09:16.141Z,8.00
2023-04-08T18:12:18.311Z,8.10
2023-04-08T18:15:20.471Z,8.10
2023-04-08T18:18:23.376Z,8.10
2023-04-08T18:21:25.462Z,8.10
2023-04-08T18:24:27.279Z,8.10
2023-04-08T18:27:29.079Z,8.10
2023-04-08T18:30:31.196Z,8.10
2023-04-08T18:33:33.709Z,8.10
2023-04-08T18:36:36.205Z,8.10
2023-04-08T18:39:41.476Z,8.10
2023-04-08T18:42:43.260Z,8.10
2023-04-08T18:45:45.782Z,8.10
2023-04-08T18:48:49.312Z,8.10
2023-04-08T18:52:01.342Z,8.10
2023-04-08T18:55:05.352Z,8.10
2023-04-08T18:58:07.475Z,8.10
2023-04-08T19:01:09.979Z,8.10
2023-04-08T19:04:12.233Z,8.10
2023-04-08T19:07:14.157Z,8.10
2023-04-08T19:10:16.083Z,8.10
2023-04-08T19:13:18.057Z,8.10
2023-04-08T19:16:20.124Z,8.10
2023-04-08T19:19:22.110Z,8.00
2023-04-08T19:22:25.043Z,8.10
2023-04-08T19:25:27.069Z,8.10
2023-04-08T19:28:28.962Z,8.10
2023-04-08T19:31:30.864Z,8.00
2023-04-08T19:34:37.490Z,8.10
2023-04-08T19:37:39.420Z,8.00
2023-04-08T19:40:41.204Z,8.00
2023-04-08T19:43:42.962Z,8.00
2023-04-08T19:46:44.817Z,8.00
2023-04-08T19:49:46.716Z,8.00
2023-04-08T19:52:48.948Z,8.00
2023-04-08T19:55:58.116Z,8.00
2023-04-08T19:59:02.031Z,8.00
2023-04-08T20:02:04.179Z,8.00
2023-04-08T20:05:07.571Z,8.00
2023-04-08T20:08:09.397Z,8.00
2023-04-08T20:11:11.548Z,8.00
2023-04-08T20:14:13.346Z,8.00
2023-04-08T20:17:16.588Z,8.00
2023-04-08T20:20:18.574Z,8.00
2023-04-08T20:23:21.003Z,7.90
2023-04-08T20:26:22.761Z,7.90
2023-04-08T20:29:24.588Z,7.90
2023-04-08T20:32:27.139Z,7.90
2023-04-08T20:35:28.938Z,7.90
2023-04-08T20:38:35.216Z,7.90
2023-04-08T20:41:37.744Z,7.90
2023-04-08T20:44:39.608Z,7.80
2023-04-08T20:47:41.550Z,7.80
2023-04-08T20:50:43.258Z,7.80
2023-04-08T20:53:45.130Z,7.80
2023-04-08T20:56:46.920Z,7.70
2023-04-08T20:59:48.795Z,7.70
2023-04-08T21:02:50.969Z,7.60
2023-04-08T21:05:55.366Z,7.60
2023-04-08T21:08:57.320Z,7.60
2023-04-08T21:11:59.260Z,7.50
2023-04-08T21:15:01.128Z,7.50
2023-04-08T21:18:04.138Z,7.50
2023-04-08T21:21:06.122Z,7.50
2023-04-08T21:24:09.503Z,7.50
2023-04-08T21:27:12.180Z,7.50
2023-04-08T21:30:14.166Z,7.50
2023-04-08T21:33:15.972Z,7.40
2023-04-08T21:36:18.149Z,7.40
2023-04-08T21:39:19.978Z,7.40
2023-04-08T21:42:22.888Z,7.40
2023-04-08T21:45:25.006Z,7.30
2023-04-08T21:48:26.882Z,7.40
2023-04-08T21:51:28.717Z,7.30
2023-04-08T21:54:30.829Z,7.30
2023-04-08T21:57:32.821Z,7.30
2023-04-08T22:00:34.899Z,7.30
2023-04-08T22:03:36.751Z,7.30
2023-04-08T22:06:38.777Z,7.30
2023-04-08T22:09:40.989Z,7.30
2023-04-08T22:12:42.840Z,7.30
2023-04-08T22:15:44.644Z,7.30
2023-04-08T22:18:46.667Z,7.30
2023-04-08T22:21:50.213Z,7.30
2023-04-08T22:24:52.000Z,7.30
2023-04-08T22:27:53.820Z,7.20
2023-04-08T22:30:55.585Z,7.20
2023-04-08T22:33:57.423Z,7.20
2023-04-08T22:36:59.246Z,7.10
2023-04-08T22:40:01.336Z,7.20
2023-04-08T22:43:03.364Z,7.10
2023-04-08T22:46:05.642Z,7.10
2023-04-08T22:49:07.668Z,7.00
2023-04-08T22:52:09.543Z,7.00
2023-04-08T22:55:11.350Z,6.90
2023-04-08T22:58:13.206Z,6.90
2023-04-08T23:01:17.278Z,6.80
2023-04-08T23:04:19.296Z,6.80
2023-04-08T23:07:21.207Z,6.80
2023-04-08T23:10:22.931Z,6.70
2023-04-08T23:13:24.756Z,6.70
2023-04-08T23:16:26.661Z,6.60
2023-04-08T23:19:28.478Z,6.60
2023-04-08T23:22:30.440Z,6.60
2023-04-08T23:25:36.091Z,6.50
2023-04-08T23:28:37.913Z,6.50
2023-04-08T23:31:39.973Z,6.40
2023-04-08T23:34:41.815Z,6.50
2023-04-08T23:37:43.583Z,6.50
2023-04-08T23:40:45.422Z,6.40
2023-04-08T23:43:47.359Z,6.40
2023-04-08T23:46:49.252Z,6.40
2023-04-08T23:49:51.405Z,6.40
2023-04-08T23:52:53.137Z,6.30
2023-04-08T23:55:55.056Z,6.30
2023-04-08T23:58:57.263Z,6.30
